createdAt,value
2018-04-12T00:00:02.532Z,99341.52
2018-04-12T00:02:31.024Z,99340.59
2018-04-12T00:04:59.510Z,99342.88
2018-04-12T00:07:27.957Z,99339.08
2018-04-12T00:09:56.500Z,99340.30
2018-04-12T00:12:24.964Z,99339.05
2018-04-12T00:14:53.426Z,99337.69
2018-04-12T00:17:21.948Z,99340.95
2018-04-12T00:19:50.453Z,99342.06
2018-04-12T00:22:18.944Z,99335.36
2018-04-12T00:24:47.460Z,99342.06
2018-04-12T00:27:15.949Z,99349.83
2018-04-12T00:29:44.468Z,99346.00
2018-04-12T00:32:12.993Z,99355.27
2018-04-12T00:34:41.520Z,99349.94
2018-04-12T00:37:10.042Z,99348.72
2018-04-12T00:39:38.514Z,99343.42
2018-04-12T00:42:06.984Z,99354.42
2018-04-12T00:44:35.496Z,99349.38
2018-04-12T00:47:03.986Z,99353.86
2018-04-12T00:49:32.481Z,99338.14
2018-04-12T00:52:00.941Z,99344.84
2018-04-12T00:54:29.466Z,99343.73
2018-04-12T00:56:57.947Z,99343.03
2018-04-12T00:59:26.458Z,99339.20
2018-04-12T01:01:54.921Z,99338.38
2018-04-12T01:04:23.429Z,99341.06
2018-04-12T01:06:51.895Z,99325.22
2018-04-12T01:09:20.415Z,99340.50
2018-04-12T01:11:48.912Z,99349.62
2018-04-12T01:14:17.441Z,99348.91
2018-04-12T01:16:45.937Z,99345.08
2018-04-12T01:19:14.480Z,99353.34
2018-04-12T01:21:42.994Z,99351.31
2018-04-12T01:24:11.500Z,99347.48
2018-04-12T01:26:40.052Z,99352.50
2018-04-12T01:29:08.513Z,99352.35
2018-04-12T01:31:37.020Z,99353.39
2018-04-12T01:34:05.539Z,99349.11
2018-04-12T01:36:34.052Z,99347.09
2018-04-12T01:39:02.558Z,99354.03
2018-04-12T01:41:31.052Z,99355.08
2018-04-12T01:43:59.504Z,99354.92
2018-04-12T01:46:28.000Z,99344.13
2018-04-12T01:48:56.470Z,99355.31
2018-04-12T01:51:24.980Z,99352.70
2018-04-12T01:53:53.492Z,99347.14
2018-04-12T01:56:22.032Z,99345.09
2018-04-12T01:58:50.515Z,99333.64
2018-04-12T02:01:19.028Z,99348.76
2018-04-12T02:03:47.493Z,99344.26
2018-04-12T02:06:16.004Z,99347.24
2018-04-12T02:08:44.490Z,99346.25
2018-04-12T02:11:12.953Z,99338.63
2018-04-12T02:13:41.452Z,99340.42
2018-04-12T02:16:09.954Z,99340.14
2018-04-12T02:18:38.476Z,99338.13
2018-04-12T02:21:06.977Z,99342.91
2018-04-12T02:23:35.498Z,99346.55
2018-04-12T02:26:04.004Z,99343.82
2018-04-12T02:28:32.489Z,99343.82
2018-04-12T02:31:00.999Z,99338.52
2018-04-12T02:33:29.501Z,99343.56
2018-04-12T02:35:58.001Z,99340.98
2018-04-12T02:38:26.493Z,99350.70
2018-04-12T02:40:54.965Z,99351.39
2018-04-12T02:43:23.456Z,99327.02
2018-04-12T02:45:51.961Z,99345.89
2018-04-12T02:48:20.432Z,99341.66
2018-04-12T02:50:48.936Z,99355.25
2018-04-12T02:53:17.404Z,99348.14
2018-04-12T02:55:45.901Z,99351.11
2018-04-12T02:58:14.444Z,99352.05
2018-04-12T03:00:42.905Z,99357.72
2018-04-12T03:03:11.396Z,99359.31
2018-04-12T03:05:39.864Z,99355.57
2018-04-12T03:08:08.364Z,99362.19
2018-04-12T03:10:36.826Z,99362.70
2018-04-12T03:13:05.388Z,99370.16
2018-04-12T03:15:33.833Z,99374.86
2018-04-12T03:18:02.304Z,99374.28
2018-04-12T03:20:30.859Z,99370.58
2018-04-12T03:22:59.340Z,99372.79
2018-04-12T03:25:27.848Z,99372.86
2018-04-12T03:27:56.312Z,99377.30
2018-04-12T03:30:24.803Z,99381.43
2018-04-12T03:32:53.320Z,99387.11
2018-04-12T03:35:21.788Z,99389.64
2018-04-12T03:37:50.266Z,99389.77
2018-04-12T03:40:18.727Z,99392.73
2018-04-12T03:42:47.220Z,99397.03
2018-04-12T03:45:15.682Z,99389.42
2018-04-12T03:47:44.188Z,99395.81
2018-04-12T03:50:12.684Z,99392.20
2018-04-12T03:52:41.135Z,99397.61
2018-04-12T03:55:09.649Z,99403.95
2018-04-12T03:57:38.161Z,99404.91
2018-04-12T04:00:06.728Z,99404.95
2018-04-12T04:02:35.245Z,99406.29
2018-04-12T04:05:03.753Z,99404.55
2018-04-12T04:07:32.212Z,99409.38
2018-04-12T04:10:00.724Z,99415.56
2018-04-12T04:12:29.260Z,99415.89
2018-04-12T04:18:10.651Z,99419.97
2018-04-12T04:20:51.145Z,99425.18
2018-04-12T04:23:19.648Z,99432.86
2018-04-12T04:25:48.141Z,99422.83
2018-04-12T04:28:16.604Z,99426.36
2018-04-12T04:30:45.136Z,99419.45
2018-04-12T04:33:13.611Z,99432.81
2018-04-12T04:35:42.085Z,99445.12
2018-04-12T04:38:10.601Z,99457.25
2018-04-12T04:40:39.089Z,99454.33
2018-04-12T04:43:07.604Z,99450.89
2018-04-12T04:45:36.130Z,99446.50
2018-04-12T04:48:04.623Z,99444.86
2018-04-12T04:50:33.265Z,99447.84
2018-04-12T04:53:01.771Z,99437.30
2018-04-12T04:55:30.241Z,99453.08
2018-04-12T04:57:58.851Z,99454.90
2018-04-12T05:00:27.744Z,99452.91
2018-04-12T05:02:56.558Z,99456.11
2018-04-12T05:05:25.096Z,99461.44
2018-04-12T05:07:53.600Z,99454.92
2018-04-12T05:10:22.277Z,99458.10
2018-04-12T05:12:50.796Z,99455.93
2018-04-12T05:15:19.533Z,99464.09
2018-04-12T05:17:48.084Z,99457.89
2018-04-12T05:20:16.584Z,99465.40
2018-04-12T05:22:45.102Z,99462.20
2018-04-12T05:25:13.653Z,99460.30
2018-04-12T05:27:42.128Z,99474.63
2018-04-12T05:30:10.632Z,99472.26
2018-04-12T05:32:39.132Z,99471.48
2018-04-12T05:35:07.609Z,99472.00
2018-04-12T05:37:36.168Z,99457.29
2018-04-12T05:40:04.681Z,99471.98
2018-04-12T05:42:33.151Z,99473.47
2018-04-12T05:45:01.657Z,99474.11
2018-04-12T05:47:30.181Z,99475.87
2018-04-12T05:49:58.715Z,99470.80
2018-04-12T05:52:27.192Z,99475.41
2018-04-12T05:54:55.705Z,99472.37
2018-04-12T05:57:24.204Z,99476.09
2018-04-12T05:59:52.662Z,99482.63
2018-04-12T06:02:21.173Z,99469.47
2018-04-12T06:04:49.676Z,99480.14
2018-04-12T06:07:18.278Z,99489.66
2018-04-12T06:09:46.761Z,99485.03
2018-04-12T06:12:15.286Z,99480.30
2018-04-12T06:14:43.761Z,99478.56
2018-04-12T06:17:12.225Z,99481.31
2018-04-12T06:19:40.773Z,99480.98
2018-04-12T06:22:09.261Z,99449.25
2018-04-12T06:24:37.772Z,99481.30
2018-04-12T06:27:06.238Z,99480.80
2018-04-12T06:29:34.775Z,99474.73
2018-04-12T06:32:03.237Z,99474.23
2018-04-12T06:34:31.786Z,99468.91
2018-04-12T06:37:00.261Z,99480.16
2018-04-12T06:39:28.741Z,99469.41
2018-04-12T06:41:57.232Z,99484.17
2018-04-12T06:44:25.700Z,99493.62
2018-04-12T06:46:54.206Z,99482.04
2018-04-12T06:49:23.605Z,99480.83
2018-04-12T06:51:52.115Z,99471.47
2018-04-12T06:54:20.631Z,99477.21
2018-04-12T06:56:49.117Z,99472.63
2018-04-12T06:59:17.636Z,99490.61
2018-04-12T07:01:46.117Z,99494.90
2018-04-12T07:04:14.632Z,99492.48
2018-04-12T07:06:43.136Z,99487.59
2018-04-12T07:09:11.742Z,99494.40
2018-04-12T07:11:40.265Z,99482.88
2018-04-12T07:14:08.789Z,99490.55
2018-04-12T07:16:37.295Z,99497.90
2018-04-12T07:19:05.797Z,99498.54
2018-04-12T07:21:34.287Z,99493.56
2018-04-12T07:24:02.775Z,99503.34
2018-04-12T07:26:31.299Z,99506.94
2018-04-12T07:28:59.776Z,99490.67
2018-04-12T07:31:28.253Z,99500.60
2018-04-12T07:33:56.784Z,99508.70
2018-04-12T07:36:25.258Z,99496.55
2018-04-12T07:38:53.775Z,99501.30
2018-04-12T07:41:22.273Z,99480.42
2018-04-12T07:43:50.800Z,99502.27
2018-04-12T07:46:19.321Z,99494.03
2018-04-12T07:48:47.776Z,99492.44
2018-04-12T07:51:16.278Z,99499.80
2018-04-12T07:53:44.768Z,99498.47
2018-04-12T07:56:13.273Z,99498.67
2018-04-12T07:58:42.800Z,99497.48
2018-04-12T08:01:11.427Z,99500.80
2018-04-12T08:03:39.949Z,99498.05
2018-04-12T08:06:08.464Z,99492.33
2018-04-12T08:08:36.983Z,99505.28
2018-04-12T08:11:05.536Z,99506.42
2018-04-12T08:13:34.004Z,99471.02
2018-04-12T08:16:02.570Z,99499.48
2018-04-12T08:18:31.058Z,99496.91
2018-04-12T08:20:59.532Z,99498.92
2018-04-12T08:23:28.044Z,99495.81
2018-04-12T08:25:57.273Z,99492.58
2018-04-12T08:28:27.075Z,99496.73
2018-04-12T08:30:55.692Z,99494.02
2018-04-12T08:33:24.181Z,99490.09
2018-04-12T08:35:52.681Z,99494.86
2018-04-12T08:38:21.164Z,99493.46
2018-04-12T08:40:49.667Z,99487.20
2018-04-12T08:43:18.142Z,99490.33
2018-04-12T08:45:46.653Z,99492.34
2018-04-12T08:48:15.145Z,99494.80
2018-04-12T08:50:43.682Z,99487.00
2018-04-12T08:53:12.218Z,99496.36
2018-04-12T08:55:41.351Z,99489.94
2018-04-12T08:58:09.856Z,99490.96
2018-04-12T09:00:38.341Z,99486.45
2018-04-12T09:03:06.977Z,99493.05
2018-04-12T09:05:35.456Z,99489.80
2018-04-12T09:08:03.916Z,99494.03
2018-04-12T09:10:32.569Z,99485.97
2018-04-12T09:13:01.032Z,99483.52
2018-04-12T09:15:29.515Z,99478.09
2018-04-12T09:17:57.977Z,99478.71
2018-04-12T09:20:26.480Z,99461.38
2018-04-12T09:22:55.004Z,99465.02
2018-04-12T09:25:23.477Z,99469.37
2018-04-12T09:27:51.949Z,99465.48
2018-04-12T09:30:20.471Z,99479.70
2018-04-12T09:32:48.981Z,99475.14
2018-04-12T09:35:17.497Z,99470.53
2018-04-12T09:37:46.047Z,99469.00
2018-04-12T09:40:14.543Z,99461.00
2018-04-12T09:42:43.072Z,99467.34
2018-04-12T09:45:11.597Z,99461.94
2018-04-12T09:47:40.083Z,99460.98
2018-04-12T09:50:08.594Z,99463.48
2018-04-12T09:52:37.093Z,99469.14
2018-04-12T09:55:05.583Z,99465.45
2018-04-12T09:57:34.123Z,99463.69
2018-04-12T10:00:02.715Z,99465.43
2018-04-12T10:02:31.232Z,99460.34
2018-04-12T10:05:00.544Z,99460.08
2018-04-12T10:07:34.658Z,99458.16
2018-04-12T10:10:03.137Z,99454.26
2018-04-12T10:12:31.637Z,99447.26
2018-04-12T10:15:00.139Z,99442.63
2018-04-12T10:17:28.675Z,99435.26
2018-04-12T10:19:57.226Z,99440.22
2018-04-12T10:22:25.706Z,99423.70
2018-04-12T10:24:54.228Z,99433.69
2018-04-12T10:27:22.726Z,99432.31
2018-04-12T10:29:51.201Z,99430.05
2018-04-12T10:32:19.759Z,99427.05
2018-04-12T10:34:48.322Z,99429.99
2018-04-12T10:37:16.783Z,99428.75
2018-04-12T10:39:45.301Z,99410.19
2018-04-12T10:42:13.757Z,99412.48
2018-04-12T10:44:42.252Z,99429.48
2018-04-12T10:47:10.801Z,99426.84
2018-04-12T10:49:39.269Z,99424.11
2018-04-12T10:52:07.796Z,99421.01
2018-04-12T10:54:36.249Z,99420.91
2018-04-12T10:57:04.787Z,99423.34
2018-04-12T10:59:33.277Z,99419.42
2018-04-12T11:02:01.788Z,99415.92
2018-04-12T11:04:30.293Z,99412.29
2018-04-12T11:06:58.803Z,99409.50
2018-04-12T11:09:27.260Z,99404.28
2018-04-12T11:11:55.718Z,99400.30
2018-04-12T11:14:24.274Z,99401.81
2018-04-12T11:16:52.740Z,99398.16
2018-04-12T11:19:21.215Z,99397.00
2018-04-12T11:21:49.744Z,99394.34
2018-04-12T11:24:18.298Z,99385.38
2018-04-12T11:26:46.780Z,99385.38
2018-04-12T11:29:15.306Z,99380.83
2018-04-12T11:31:43.836Z,99378.31
2018-04-12T11:34:12.388Z,99371.02
2018-04-12T11:36:40.906Z,99372.06
2018-04-12T11:39:09.402Z,99367.90
2018-04-12T11:41:37.900Z,99365.00
2018-04-12T11:44:06.420Z,99354.89
2018-04-12T11:46:34.956Z,99361.16
2018-04-12T11:49:03.425Z,99361.18
2018-04-12T11:51:31.904Z,99356.16
2018-04-12T11:54:00.423Z,99345.13
2018-04-12T11:56:29.039Z,99356.01
2018-04-12T11:58:57.548Z,99346.51
2018-04-12T12:01:25.993Z,99345.83
2018-04-12T12:03:54.496Z,99342.28
2018-04-12T12:06:22.989Z,99340.31
2018-04-12T12:08:51.589Z,99335.59
2018-04-12T12:11:20.132Z,99326.34
2018-04-12T12:13:48.601Z,99325.90
2018-04-12T12:16:17.072Z,99325.22
2018-04-12T12:18:45.598Z,99325.09
2018-04-12T12:21:14.141Z,99316.09
2018-04-12T12:23:42.698Z,99313.92
2018-04-12T12:26:11.197Z,99309.89
2018-04-12T12:28:39.668Z,99314.13
2018-04-12T12:31:08.161Z,99309.03
2018-04-12T12:33:36.652Z,99301.16
2018-04-12T12:36:05.212Z,99312.56
2018-04-12T12:38:33.760Z,99311.45
2018-04-12T12:41:02.228Z,99306.63
2018-04-12T12:43:30.738Z,99311.79
2018-04-12T12:45:59.205Z,99307.81
2018-04-12T12:48:27.692Z,99294.55
2018-04-12T12:50:56.201Z,99309.58
2018-04-12T12:53:24.690Z,99312.64
2018-04-12T12:55:53.207Z,99307.37
2018-04-12T12:58:21.740Z,99301.38
2018-04-12T13:00:50.197Z,99269.47
2018-04-12T13:03:18.657Z,99297.31
2018-04-12T13:05:47.204Z,99298.70
2018-04-12T13:08:15.712Z,99294.48
2018-04-12T13:10:44.212Z,99288.67
2018-04-12T13:13:12.755Z,99296.05
2018-04-12T13:15:41.255Z,99285.74
2018-04-12T13:18:09.725Z,99280.39
2018-04-12T13:20:38.298Z,99277.13
2018-04-12T13:23:06.800Z,99272.48
2018-04-12T13:25:35.300Z,99280.61
2018-04-12T13:28:03.913Z,99272.70
2018-04-12T13:30:32.502Z,99267.64
2018-04-12T13:33:01.077Z,99268.30
2018-04-12T13:35:29.594Z,99274.96
2018-04-12T13:37:58.081Z,99270.73
2018-04-12T13:40:26.597Z,99261.46
2018-04-12T13:42:55.112Z,99268.89
2018-04-12T13:45:23.614Z,99254.55
2018-04-12T13:47:52.160Z,99255.40
2018-04-12T13:50:20.649Z,99257.95
2018-04-12T13:52:49.164Z,99255.31
2018-04-12T13:55:17.692Z,99246.43
2018-04-12T13:57:46.202Z,99257.80
2018-04-12T14:00:14.713Z,99252.95
2018-04-12T14:02:43.165Z,99250.41
2018-04-12T14:05:11.625Z,99243.98
2018-04-12T14:07:40.113Z,99246.25
2018-04-12T14:10:08.670Z,99240.13
2018-04-12T14:12:37.141Z,99243.42
2018-04-12T14:15:05.657Z,99241.16
2018-04-12T14:17:34.125Z,99243.11
2018-04-12T14:20:02.608Z,99240.33
2018-04-12T14:22:31.069Z,99237.75
2018-04-12T14:24:59.568Z,99229.35
2018-04-12T14:27:28.001Z,99234.91
2018-04-12T14:29:56.513Z,99239.95
2018-04-12T14:32:25.029Z,99231.67
2018-04-12T14:34:53.521Z,99217.86
2018-04-12T14:37:22.039Z,99224.23
2018-04-12T14:39:50.509Z,99222.80
2018-04-12T14:42:19.013Z,99237.16
2018-04-12T14:44:47.509Z,99231.89
2018-04-12T14:47:15.988Z,99226.39
2018-04-12T14:49:52.431Z,99223.61
2018-04-12T14:52:20.904Z,99224.04
2018-04-12T14:54:49.403Z,99226.16
2018-04-12T14:57:17.892Z,99228.34
2018-04-12T14:59:46.377Z,99219.02
2018-04-12T15:02:14.821Z,99223.36
2018-04-12T15:04:43.313Z,99220.31
2018-04-12T15:07:11.834Z,99215.72
2018-04-12T15:09:40.299Z,99215.27
2018-04-12T15:12:08.792Z,99219.61
2018-04-12T15:14:37.244Z,99233.79
2018-04-12T15:17:05.727Z,99221.72
2018-04-12T15:19:34.215Z,99231.03
2018-04-12T15:22:02.676Z,99228.10
2018-04-12T15:24:31.128Z,99224.02
2018-04-12T15:26:59.638Z,99216.63
2018-04-12T15:29:28.169Z,99223.09
2018-04-12T15:31:56.626Z,99226.36
2018-04-12T15:34:25.107Z,99222.35
2018-04-12T15:36:53.610Z,99227.02
2018-04-12T15:39:22.069Z,99218.80
2018-04-12T15:41:50.534Z,99212.12
2018-04-12T15:44:18.984Z,99223.41
2018-04-12T15:46:47.476Z,99208.78
2018-04-12T15:49:15.932Z,99219.22
2018-04-12T15:51:44.377Z,99222.13
2018-04-12T15:54:12.869Z,99222.67
2018-04-12T15:56:41.369Z,99204.03
2018-04-12T15:59:09.840Z,99226.27
2018-04-12T16:01:38.345Z,99220.48
2018-04-12T16:04:06.804Z,99214.98
2018-04-12T16:06:35.270Z,99218.39
2018-04-12T16:09:03.837Z,99222.13
2018-04-12T16:11:32.282Z,99229.16
2018-04-12T16:14:00.724Z,99222.34
2018-04-12T16:16:29.187Z,99230.95
2018-04-12T16:18:57.644Z,99221.65
2018-04-12T16:21:26.139Z,99223.98
2018-04-12T16:23:54.612Z,99223.72
2018-04-12T16:26:23.115Z,99232.69
2018-04-12T16:28:51.571Z,99227.23
2018-04-12T16:31:20.089Z,99234.94
2018-04-12T16:33:48.536Z,99237.23
2018-04-12T16:36:17.017Z,99236.30
2018-04-12T16:38:45.460Z,99234.94
2018-04-12T16:41:13.956Z,99231.41
2018-04-12T16:43:42.384Z,99237.38
2018-04-12T16:46:10.893Z,99239.59
2018-04-12T16:48:39.408Z,99247.80
2018-04-12T16:51:07.875Z,99248.56
2018-04-12T16:53:36.357Z,99254.39
2018-04-12T16:56:04.858Z,99251.50
2018-04-12T16:58:33.349Z,99250.88
2018-04-12T17:01:01.804Z,99256.50
2018-04-12T17:03:30.298Z,99261.16
2018-04-12T17:05:58.744Z,99260.61
2018-04-12T17:08:27.181Z,99269.15
2018-04-12T17:10:55.665Z,99278.01
2018-04-12T17:13:24.140Z,99275.72
2018-04-12T17:15:52.595Z,99280.09
2018-04-12T17:18:21.054Z,99282.20
2018-04-12T17:20:49.528Z,99282.06
2018-04-12T17:23:18.031Z,99283.84
2018-04-12T17:25:46.531Z,99288.30
2018-04-12T17:28:15.008Z,99297.20
2018-04-12T17:30:43.472Z,99284.56
2018-04-12T17:33:11.947Z,99296.00
2018-04-12T17:35:40.411Z,99305.88
2018-04-12T17:38:08.894Z,99299.23
2018-04-12T17:40:37.340Z,99304.58
2018-04-12T17:43:05.827Z,99303.10
2018-04-12T17:45:35.132Z,99301.95
2018-04-12T17:48:03.617Z,99304.79
2018-04-12T17:50:32.068Z,99309.44
2018-04-12T17:53:00.535Z,99306.89
2018-04-12T17:55:28.953Z,99309.47
2018-04-12T17:57:57.442Z,99313.50
2018-04-12T18:00:25.937Z,99316.92
2018-04-12T18:02:54.430Z,99320.59
2018-04-12T18:05:22.885Z,99323.97
2018-04-12T18:07:51.368Z,99331.48
2018-04-12T18:10:19.841Z,99342.70
2018-04-12T18:12:48.354Z,99344.15
2018-04-12T18:15:16.803Z,99345.85
2018-04-12T18:17:45.274Z,99351.34
2018-04-12T18:20:13.772Z,99352.36
2018-04-12T18:22:42.272Z,99357.43
2018-04-12T18:25:10.713Z,99353.58
2018-04-12T18:27:39.202Z,99359.75
2018-04-12T18:30:07.704Z,99363.99
2018-04-12T18:32:36.220Z,99363.56
2018-04-12T18:35:04.666Z,99361.92
2018-04-12T18:37:33.112Z,99361.72
2018-04-12T18:40:01.585Z,99366.89
2018-04-12T18:42:30.078Z,99369.31
2018-04-12T18:44:58.520Z,99370.45
2018-04-12T18:47:27.005Z,99369.03
2018-04-12T18:49:55.502Z,99372.28
2018-04-12T18:52:24.022Z,99370.33
2018-04-12T18:54:52.515Z,99372.20
2018-04-12T18:57:21.048Z,99377.64
2018-04-12T18:59:49.537Z,99379.28
2018-04-12T19:02:18.012Z,99381.59
2018-04-12T19:04:46.467Z,99383.45
2018-04-12T19:07:14.983Z,99387.38
2018-04-12T19:09:43.460Z,99380.70
2018-04-12T19:12:11.922Z,99381.56
2018-04-12T19:14:40.408Z,99379.25
2018-04-12T19:17:08.874Z,99378.44
2018-04-12T19:19:37.368Z,99382.23
2018-04-12T19:22:05.842Z,99385.44
2018-04-12T19:24:34.296Z,99391.11
2018-04-12T19:27:02.784Z,99391.77
2018-04-12T19:29:31.238Z,99394.27
2018-04-12T19:31:59.730Z,99392.44
2018-04-12T19:34:28.158Z,99392.60
2018-04-12T19:36:56.645Z,99398.31
2018-04-12T19:39:25.100Z,99402.69
2018-04-12T19:41:53.607Z,99403.06
2018-04-12T19:44:22.086Z,99396.83
2018-04-12T19:46:50.606Z,99403.69
2018-04-12T19:49:19.059Z,99390.34
2018-04-12T19:51:47.516Z,99396.34
2018-04-12T19:54:16.034Z,99415.74
2018-04-12T19:56:44.481Z,99411.23
2018-04-12T19:59:12.972Z,99403.77
2018-04-12T20:01:41.463Z,99420.58
2018-04-12T20:04:09.903Z,99425.24
2018-04-12T20:06:38.395Z,99424.16
2018-04-12T20:09:06.852Z,99424.60
2018-04-12T20:11:35.341Z,99424.22
2018-04-12T20:14:03.838Z,99427.58
2018-04-12T20:16:32.317Z,99435.03
2018-04-12T20:19:00.794Z,99433.81
2018-04-12T20:21:29.252Z,99443.50
2018-04-12T20:23:57.740Z,99443.19
2018-04-12T20:26:26.228Z,99449.04
2018-04-12T20:28:54.717Z,99451.94
2018-04-12T20:31:23.181Z,99452.06
2018-04-12T20:33:51.686Z,99457.94
2018-04-12T20:36:20.218Z,99459.87
2018-04-12T20:38:48.797Z,99460.30
2018-04-12T20:41:17.347Z,99465.38
2018-04-12T20:43:45.941Z,99470.80
2018-04-12T20:46:14.579Z,99465.28
2018-04-12T20:48:43.183Z,99474.00
2018-04-12T20:51:11.733Z,99467.87
2018-04-12T20:53:41.333Z,99471.07
2018-04-12T20:56:10.353Z,99466.33
2018-04-12T20:58:38.930Z,99476.06
2018-04-12T21:01:07.522Z,99486.28
2018-04-12T21:03:35.964Z,99492.30
2018-04-12T21:06:04.437Z,99486.97
2018-04-12T21:08:32.924Z,99482.88
2018-04-12T21:11:01.373Z,99491.35
2018-04-12T21:13:30.332Z,99496.15
2018-04-12T21:15:58.788Z,99499.44
2018-04-12T21:18:27.268Z,99509.19
2018-04-12T21:20:55.749Z,99521.78
2018-04-12T21:23:24.202Z,99519.48
2018-04-12T21:25:52.680Z,99526.32
2018-04-12T21:28:21.138Z,99535.07
2018-04-12T21:30:49.621Z,99530.45
2018-04-12T21:33:18.072Z,99528.09
2018-04-12T21:35:46.560Z,99530.06
2018-04-12T21:38:15.020Z,99530.09
2018-04-12T21:40:43.493Z,99530.82
2018-04-12T21:43:12.000Z,99534.26
2018-04-12T21:45:40.467Z,99533.59
2018-04-12T21:48:08.945Z,99533.50
2018-04-12T21:50:37.417Z,99533.56
2018-04-12T21:53:05.884Z,99527.95
2018-04-12T21:55:34.333Z,99535.63
2018-04-12T21:58:02.829Z,99533.19
2018-04-12T22:00:31.293Z,99533.34
2018-04-12T22:02:59.838Z,99538.42
2018-04-12T22:05:28.320Z,99539.10
2018-04-12T22:07:56.828Z,99541.45
2018-04-12T22:10:25.392Z,99533.52
2018-04-12T22:12:53.913Z,99535.72
2018-04-12T22:15:22.456Z,99540.78
2018-04-12T22:17:50.948Z,99548.06
2018-04-12T22:20:19.480Z,99551.47
2018-04-12T22:22:47.970Z,99547.67
2018-04-12T22:25:16.568Z,99547.13
2018-04-12T22:27:45.084Z,99535.80
2018-04-12T22:30:13.628Z,99555.62
2018-04-12T22:32:42.144Z,99555.20
2018-04-12T22:35:10.664Z,99566.56
2018-04-12T22:37:39.189Z,99557.84
2018-04-12T22:40:07.728Z,99565.21
2018-04-12T22:42:36.338Z,99564.28
2018-04-12T22:45:04.852Z,99560.28
2018-04-12T22:47:33.338Z,99560.16
2018-04-12T22:50:01.869Z,99561.97
2018-04-12T22:52:30.406Z,99564.42
2018-04-12T22:54:58.941Z,99562.12
2018-04-12T22:57:27.478Z,99560.89
2018-04-12T22:59:56.008Z,99565.67
2018-04-12T23:02:24.488Z,99571.30
2018-04-12T23:04:53.075Z,99570.87
2018-04-12T23:07:21.656Z,99570.60
2018-04-12T23:09:50.208Z,99569.52
2018-04-12T23:12:18.728Z,99565.70
2018-04-12T23:14:47.310Z,99561.88
2018-04-12T23:17:15.818Z,99557.22
2018-04-12T23:19:44.384Z,99555.98
2018-04-12T23:22:12.919Z,99533.20
2018-04-12T23:24:41.532Z,99542.63
2018-04-12T23:27:10.113Z,99543.97
2018-04-12T23:29:38.653Z,99545.20
2018-04-12T23:32:07.216Z,99555.72
2018-04-12T23:34:35.860Z,99563.64
2018-04-12T23:37:04.437Z,99561.47
2018-04-12T23:39:33.001Z,99559.97
2018-04-12T23:42:01.540Z,99556.95
2018-04-12T23:44:30.082Z,99557.10
2018-04-12T23:46:58.640Z,99552.58
2018-04-12T23:49:27.211Z,99550.25
2018-04-12T23:51:55.769Z,99550.93
2018-04-12T23:54:24.375Z,99543.13
2018-04-12T23:56:52.948Z,99542.84
2018-04-12T23:59:21.454Z,99543.11
